Time;durP1;ratioP1;P1;durP2;ratioP2;P2;SDS_P1;SDS_P2;PMS_P1;PMS_P2;Temp;Humidity;BMP_temperature;BMP_pressure;BME280_temperature;BME280_humidity;BME280_pressure;Samples;Min_cycle;Max_cycle;Signal;HPM_P1;HPM_P2
2022/09/28 00:01:59;;;;;;;0.67;0.67;;;6.00;99.90;6.30;95538.00;;;;5046082;28;20225;-88
2022/09/28 00:04:48;;;;;;;0.70;0.70;;;6.80;99.90;6.40;95550.00;;;;5037527;28;20225;-89
2022/09/28 00:07:37;;;;;;;0.53;0.53;;;6.80;99.90;6.40;95547.00;;;;5038669;28;20198;-90
2022/09/28 00:10:26;;;;;;;1.40;1.03;;;5.50;99.90;6.40;95549.00;;;;5055263;28;20189;-89
2022/09/28 00:13:15;;;;;;;4.03;0.80;;;4.70;99.90;6.40;95550.00;;;;5044117;28;20249;-89
2022/09/28 00:16:08;;;;;;;0.67;0.60;;;5.40;99.90;6.60;95543.00;;;;5037513;28;20217;-89
2022/09/28 00:18:58;;;;;;;1.60;0.80;;;5.50;99.90;6.60;95540.00;;;;5021324;28;20205;-89
2022/09/28 00:21:47;;;;;;;0.60;0.60;;;5.50;99.90;6.60;95543.00;;;;5025053;28;20221;-89
2022/09/28 00:24:36;;;;;;;0.80;0.80;;;5.90;99.90;6.60;95546.00;;;;5014354;28;20454;-89
2022/09/28 00:27:24;;;;;;;0.70;0.70;;;5.50;99.90;6.70;95548.00;;;;5014063;28;20777;-90
2022/09/28 00:30:15;;;;;;;0.80;0.80;;;6.20;99.90;6.60;95557.00;;;;5025693;28;20208;-90
2022/09/28 00:33:05;;;;;;;0.80;0.80;;;5.70;99.90;6.40;95554.00;;;;5024665;28;20208;-90
2022/09/28 00:35:58;;;;;;;0.60;0.60;;;5.50;99.90;6.70;95543.00;;;;5022258;28;20205;-90
2022/09/28 00:38:47;;;;;;;1.50;0.73;;;5.50;99.90;6.80;95536.00;;;;5026699;28;20566;-90
2022/09/28 00:41:36;;;;;;;0.70;0.60;;;5.80;99.90;6.70;95541.00;;;;5025439;28;20213;-90
2022/09/28 00:44:47;;;;;;;2.10;0.80;;;5.60;99.90;6.30;95545.00;;;;5019539;28;20220;-91
2022/09/28 00:47:50;;;;;;;2.87;0.60;;;5.10;99.90;6.10;95539.00;;;;5015261;28;20586;-90
2022/09/28 00:50:41;;;;;;;0.77;0.77;;;5.50;99.90;6.20;95547.00;;;;5028570;28;20212;-90
2022/09/28 00:53:33;;;;;;;0.60;0.60;;;5.40;99.90;6.40;95552.00;;;;5032484;28;20551;-90
2022/09/28 00:56:27;;;;;;;0.50;0.50;;;5.30;99.90;6.50;95548.00;;;;5031997;28;20759;-90
2022/09/28 00:59:16;;;;;;;3.60;0.63;;;5.50;99.90;6.50;95534.00;;;;5026564;28;20203;-90
2022/09/28 01:02:06;;;;;;;0.60;0.60;;;5.40;99.90;6.40;95546.00;;;;5023897;28;20225;-90
2022/09/28 01:04:55;;;;;;;0.80;0.80;;;5.60;99.90;6.10;95542.00;;;;5015356;28;20258;-89
2022/09/28 01:07:47;;;;;;;0.57;0.57;;;5.50;99.90;5.80;95540.00;;;;5011192;28;20733;-89
2022/09/28 01:10:36;;;;;;;0.70;0.70;;;6.30;99.90;5.70;95533.00;;;;5011458;28;20198;-90
2022/09/28 01:13:27;;;;;;;2.00;0.47;;;5.20;99.90;5.80;95534.00;;;;5029693;28;20204;-90
2022/09/28 01:16:27;;;;;;;0.60;0.60;;;5.30;99.90;5.70;95530.00;;;;5018170;28;20224;-90
2022/09/28 01:19:40;;;;;;;2.97;0.80;;;5.30;99.90;5.80;95535.00;;;;5026637;23;20238;-86
2022/09/28 01:22:49;;;;;;;0.93;0.73;;;4.90;99.90;5.70;95525.00;;;;5032412;28;20327;-87
2022/09/28 01:25:46;;;;;;;1.40;0.97;;;4.90;99.90;5.40;95514.00;;;;5031312;28;20226;-86
2022/09/28 01:28:36;;;;;;;0.60;0.60;;;5.30;99.90;5.60;95514.00;;;;5018820;28;20202;-86
2022/09/28 01:31:29;;;;;;;0.70;0.70;;;4.70;99.90;5.80;95500.00;;;;5025050;28;20209;-86
2022/09/28 01:34:27;;;;;;;0.83;0.80;;;4.80;99.90;5.70;95491.00;;;;5018228;28;20222;-86
2022/09/28 01:37:22;;;;;;;1.10;0.70;;;5.10;99.90;5.50;95493.00;;;;5021318;28;20205;-87
2022/09/28 01:40:12;;;;;;;1.00;0.90;;;4.80;99.90;5.10;95500.00;;;;5014124;28;20198;-87
2022/09/28 01:43:05;;;;;;;0.90;0.83;;;5.00;99.90;5.10;95498.00;;;;5014063;28;20244;-86
2022/09/28 01:46:00;;;;;;;3.30;0.83;;;4.60;99.90;5.30;95496.00;;;;5016175;28;20312;-86
2022/09/28 01:48:55;;;;;;;2.87;0.87;;;5.10;99.90;5.40;95492.00;;;;5024902;28;20209;-86
2022/09/28 01:51:50;;;;;;;0.90;0.90;;;4.90;99.90;5.10;95485.00;;;;5018046;28;20213;-86
2022/09/28 01:54:45;;;;;;;0.90;0.90;;;5.30;99.90;5.20;95488.00;;;;5034512;28;20279;-87
2022/09/28 01:57:39;;;;;;;1.10;0.80;;;5.20;99.90;5.50;95481.00;;;;5023259;28;20202;-87
2022/09/28 02:00:28;;;;;;;1.53;0.90;;;5.00;99.90;5.50;95485.00;;;;5030394;28;20233;-85
2022/09/28 02:03:24;;;;;;;1.10;1.00;;;5.70;99.90;5.20;95490.00;;;;5017384;28;20233;-86
2022/09/28 02:06:18;;;;;;;2.37;0.80;;;4.90;99.90;5.50;95491.00;;;;5019780;28;20213;-86
2022/09/28 02:09:13;;;;;;;1.03;0.90;;;4.50;99.90;5.60;95478.00;;;;5018864;28;20202;-86
2022/09/28 02:12:08;;;;;;;0.70;0.70;;;5.00;99.90;5.70;95486.00;;;;5026086;28;20276;-86
2022/09/28 02:15:09;;;;;;;0.83;0.73;;;4.70;99.90;5.70;95479.00;;;;5039351;28;20272;-86
2022/09/28 02:17:58;;;;;;;1.30;1.17;;;4.60;99.90;5.50;95478.00;;;;5018914;28;20833;-87
2022/09/28 02:20:54;;;;;;;0.77;0.77;;;4.90;99.90;5.50;95469.00;;;;5020180;28;20236;-87
2022/09/28 02:23:54;;;;;;;0.70;0.70;;;5.40;99.90;5.10;95468.00;;;;5037117;28;20229;-87
2022/09/28 02:26:45;;;;;;;1.43;1.00;;;4.90;99.90;5.10;95474.00;;;;5031219;28;20202;-87
2022/09/28 02:29:34;;;;;;;0.60;0.60;;;5.00;99.90;5.30;95477.00;;;;5016844;28;20205;-86
2022/09/28 02:32:26;;;;;;;1.13;0.80;;;4.90;99.90;5.00;95473.00;;;;5015655;28;20233;-87
2022/09/28 02:35:18;;;;;;;2.57;1.20;;;4.10;99.90;4.90;95483.00;;;;5034813;28;20212;-86
2022/09/28 02:38:09;;;;;;;1.67;1.03;;;4.30;99.90;4.90;95484.00;;;;5035185;28;20201;-86
2022/09/28 02:41:04;;;;;;;1.87;1.10;;;5.00;99.90;5.00;95486.00;;;;5035790;28;20565;-86
2022/09/28 02:44:03;;;;;;;1.53;1.10;;;4.20;99.90;4.90;95491.00;;;;5015851;28;20445;-87
2022/09/28 02:47:00;;;;;;;2.23;0.80;;;5.00;99.90;4.80;95497.00;;;;5017025;28;20202;-86
2022/09/28 02:49:56;;;;;;;0.70;0.70;;;5.20;99.90;5.10;95481.00;;;;5019990;28;20432;-86
2022/09/28 02:53:11;;;;;;;6.33;0.90;;;4.00;99.90;4.90;95485.00;;;;5020320;28;20865;-86
2022/09/28 02:56:38;;;;;;;0.60;0.60;;;4.10;99.90;5.00;95477.00;;;;5033189;28;20818;-85
2022/09/28 02:59:47;;;;;;;0.80;0.80;;;4.80;99.90;5.20;95482.00;;;;5037701;28;20848;-87
2022/09/28 03:02:47;;;;;;;0.50;0.50;;;4.10;99.90;4.70;95474.00;;;;5036493;28;20313;-87
2022/09/28 03:05:47;;;;;;;1.17;0.93;;;4.10;99.90;4.60;95477.00;;;;5036879;28;20689;-87
2022/09/28 03:08:42;;;;;;;0.50;0.43;;;4.60;99.90;4.40;95473.00;;;;5018786;28;20210;-86
2022/09/28 03:11:37;;;;;;;0.60;0.60;;;4.30;99.90;4.40;95467.00;;;;5023169;28;20213;-87
2022/09/28 03:14:26;;;;;;;0.50;0.50;;;3.60;99.90;4.30;95463.00;;;;5017602;28;20429;-86
2022/09/28 03:17:15;;;;;;;0.67;0.60;;;3.80;99.90;4.10;95462.00;;;;5014684;28;20270;-86
2022/09/28 03:20:05;;;;;;;1.07;0.97;;;3.80;99.90;4.30;95464.00;;;;5015317;28;20464;-88
2022/09/28 03:22:54;;;;;;;1.00;0.90;;;3.70;99.90;4.10;95454.00;;;;4994330;28;20472;-87
2022/09/28 03:26:01;;;;;;;0.60;0.60;;;3.90;99.90;3.90;95463.00;;;;5002444;28;20502;-87
2022/09/28 03:28:50;;;;;;;0.80;0.80;;;3.50;99.90;4.20;95448.00;;;;5014086;28;20461;-86
2022/09/28 03:31:38;;;;;;;2.60;0.80;;;3.50;99.90;4.00;95450.00;;;;5012801;28;20523;-87
2022/09/28 03:34:27;;;;;;;0.83;0.80;;;4.30;99.90;4.00;95445.00;;;;5013016;28;20788;-88
2022/09/28 03:37:16;;;;;;;4.47;1.10;;;3.60;99.90;4.10;95447.00;;;;5001522;28;20477;-87
2022/09/28 03:40:06;;;;;;;4.20;1.10;;;3.50;99.90;4.30;95454.00;;;;4996887;28;20862;-85
2022/09/28 03:42:56;;;;;;;0.70;0.70;;;3.60;99.90;4.30;95458.00;;;;4996179;28;20513;-85
2022/09/28 03:45:53;;;;;;;2.00;1.23;;;3.10;99.90;4.70;95446.00;;;;5007781;28;20429;-86
2022/09/28 03:48:41;;;;;;;2.80;0.87;;;3.70;99.90;4.30;95441.00;;;;5003845;28;20429;-87
2022/09/28 03:51:30;;;;;;;2.73;0.70;;;3.20;99.90;4.20;95443.00;;;;5015940;28;20433;-86
2022/09/28 03:54:19;;;;;;;0.77;0.70;;;3.90;99.90;4.30;95441.00;;;;5016002;28;20433;-87
2022/09/28 03:57:08;;;;;;;0.80;0.80;;;3.40;99.90;4.30;95430.00;;;;5006583;28;20476;-86
2022/09/28 03:59:58;;;;;;;0.97;0.80;;;3.10;99.90;4.70;95441.00;;;;5017785;28;20437;-86
2022/09/28 04:02:47;;;;;;;1.47;1.37;;;4.70;99.90;5.00;95434.00;;;;5014503;28;20500;-87
2022/09/28 04:05:36;;;;;;;0.90;0.90;;;3.70;99.90;5.10;95427.00;;;;5006086;28;21029;-86
2022/09/28 04:08:24;;;;;;;0.90;0.90;;;3.80;99.90;5.10;95428.00;;;;5005101;28;20965;-86
2022/09/28 04:11:13;;;;;;;1.57;0.97;;;4.40;99.90;4.80;95414.00;;;;5004420;28;20441;-87
2022/09/28 04:14:02;;;;;;;0.67;0.60;;;3.70;99.90;4.20;95410.00;;;;5003300;28;20876;-86
2022/09/28 04:16:53;;;;;;;1.87;1.30;;;4.00;99.90;4.10;95412.00;;;;5014459;28;20249;-86
2022/09/28 04:19:42;;;;;;;1.10;1.03;;;4.80;99.90;4.30;95404.00;;;;4995185;28;20221;-87
2022/09/28 04:22:31;;;;;;;2.00;0.77;;;3.70;99.90;4.40;95406.00;;;;5007050;28;20476;-86
2022/09/28 04:25:20;;;;;;;0.80;0.80;;;3.20;99.90;4.50;95398.00;;;;5006895;28;20837;-87
2022/09/28 04:31:19;;;;;;;1.20;1.10;;;3.30;99.90;3.70;95405.00;;;;4994050;28;20476;-86
2022/09/28 04:34:10;;;;;;;1.60;0.93;;;3.40;99.90;3.70;95408.00;;;;5003066;28;20445;-86
2022/09/28 04:36:59;;;;;;;0.73;0.73;;;3.40;99.90;3.90;95416.00;;;;5009095;28;20544;-86
2022/09/28 04:39:47;;;;;;;2.83;1.03;;;3.40;99.90;4.20;95397.00;;;;5004688;28;20504;-85
2022/09/28 04:42:36;;;;;;;3.30;1.00;;;4.20;99.90;4.20;95398.00;;;;5008569;28;20469;-85
2022/09/28 04:45:25;;;;;;;1.00;1.00;;;3.20;99.90;4.20;95396.00;;;;4995879;28;20434;-85
2022/09/28 04:48:14;;;;;;;0.90;0.90;;;3.50;99.90;4.50;95402.00;;;;4997965;28;20206;-86
2022/09/28 04:51:05;;;;;;;1.40;1.10;;;3.60;99.90;4.60;95391.00;;;;5013866;28;20456;-86
2022/09/28 04:53:55;;;;;;;7.37;1.60;;;4.70;99.90;4.40;95401.00;;;;5005841;28;20454;-86
2022/09/28 04:56:44;;;;;;;2.70;2.50;;;4.10;99.90;4.50;95415.00;;;;5012129;28;20468;-85
2022/09/28 04:59:32;;;;;;;1.57;1.47;;;4.30;99.90;4.00;95411.00;;;;5011131;28;20546;-86
2022/09/28 05:02:21;;;;;;;1.10;1.00;;;3.50;99.90;4.20;95420.00;;;;5013354;28;20272;-86
2022/09/28 05:05:10;;;;;;;1.20;1.20;;;3.20;99.90;4.30;95420.00;;;;4998171;28;22374;-86
2022/09/28 05:08:00;;;;;;;1.33;1.23;;;3.50;99.90;4.60;95415.00;;;;5006616;28;20950;-86
2022/09/28 05:10:56;;;;;;;2.10;1.90;;;3.50;99.90;4.30;95409.00;;;;5010292;28;20437;-86
2022/09/28 05:13:47;;;;;;;2.50;2.40;;;4.10;99.90;4.10;95398.00;;;;5004560;28;20865;-86
2022/09/28 05:16:35;;;;;;;1.00;1.00;;;3.40;99.90;3.90;95407.00;;;;5022317;28;20498;-86
2022/09/28 05:19:24;;;;;;;2.60;1.43;;;4.20;99.90;4.00;95402.00;;;;5019151;28;20436;-87
2022/09/28 05:22:14;;;;;;;1.00;1.00;;;3.30;99.90;3.70;95400.00;;;;5024462;28;20498;-87
2022/09/28 05:25:05;;;;;;;1.20;0.90;;;4.60;99.90;3.70;95402.00;;;;5029210;28;20439;-86
2022/09/28 05:27:56;;;;;;;1.50;0.73;;;3.30;99.90;3.80;95402.00;;;;5021599;28;20471;-85
2022/09/28 05:30:44;;;;;;;0.60;0.60;;;4.50;99.90;3.80;95411.00;;;;5028769;28;20440;-86
2022/09/28 05:33:33;;;;;;;0.70;0.70;;;3.30;99.90;4.00;95404.00;;;;5019186;28;20515;-87
2022/09/28 05:36:23;;;;;;;1.00;1.00;;;4.10;99.90;4.00;95401.00;;;;5028720;28;20451;-86
2022/09/28 05:39:12;;;;;;;3.57;3.27;;;3.40;99.90;4.00;95385.00;;;;5031738;28;20528;-85
2022/09/28 05:42:02;;;;;;;1.40;1.30;;;3.40;99.90;4.00;95396.00;;;;5032700;28;20537;-85
2022/09/28 05:44:50;;;;;;;0.73;0.73;;;3.90;99.90;4.00;95398.00;;;;5025830;28;20245;-85
2022/09/28 05:47:40;;;;;;;0.90;0.90;;;4.60;99.90;4.20;95412.00;;;;5022019;28;20420;-86
2022/09/28 05:50:29;;;;;;;1.20;1.10;;;4.40;99.90;4.40;95408.00;;;;5025316;28;20432;-85
2022/09/28 05:53:17;;;;;;;3.57;0.83;;;4.50;99.90;4.70;95406.00;;;;5024620;28;20846;-86
2022/09/28 05:56:07;;;;;;;1.10;1.00;;;3.60;99.90;5.00;95401.00;;;;5030783;28;20452;-86
2022/09/28 05:58:58;;;;;;;2.60;1.10;;;4.30;99.90;5.00;95392.00;;;;5025807;28;20436;-86
2022/09/28 06:01:47;;;;;;;1.60;0.93;;;4.50;99.90;5.20;95397.00;;;;5023380;28;20209;-84
2022/09/28 06:04:35;;;;;;;3.33;1.37;;;4.20;99.90;5.10;95387.00;;;;5016622;28;20237;-86
2022/09/28 06:07:24;;;;;;;1.20;0.97;;;4.60;99.90;5.20;95393.00;;;;5018078;28;20198;-85
2022/09/28 06:10:13;;;;;;;1.13;1.13;;;4.30;99.90;5.30;95396.00;;;;5018300;28;20432;-86
2022/09/28 06:13:02;;;;;;;4.87;1.50;;;4.40;99.90;5.50;95391.00;;;;5027011;28;20468;-86
2022/09/28 06:15:52;;;;;;;2.90;1.60;;;5.10;99.90;5.70;95377.00;;;;5028394;28;20436;-85
2022/09/28 06:18:41;;;;;;;1.63;1.53;;;5.00;99.90;6.00;95373.00;;;;5038565;28;20221;-85
2022/09/28 06:21:29;;;;;;;7.27;2.30;;;4.80;99.90;6.20;95371.00;;;;5024268;28;20208;-85
2022/09/28 06:24:18;;;;;;;2.00;1.87;;;5.00;99.90;6.00;95368.00;;;;5027770;28;20269;-84
2022/09/28 06:27:07;;;;;;;3.67;2.00;;;5.50;99.90;6.00;95361.00;;;;5014439;28;20198;-87
2022/09/28 06:29:55;;;;;;;1.63;1.27;;;5.40;99.90;5.70;95368.00;;;;5023749;28;20201;-86
2022/09/28 06:32:45;;;;;;;1.60;1.50;;;5.10;99.90;5.70;95361.00;;;;5026848;28;20218;-87
2022/09/28 06:35:35;;;;;;;3.87;2.23;;;6.00;99.90;6.10;95374.00;;;;5023223;28;20210;-85
2022/09/28 06:38:23;;;;;;;2.90;2.03;;;5.80;99.90;6.10;95380.00;;;;5021603;28;20213;-87
2022/09/28 06:41:12;;;;;;;4.07;1.83;;;5.90;99.90;6.30;95388.00;;;;5016996;28;20310;-86
2022/09/28 06:44:02;;;;;;;2.93;2.30;;;5.40;99.90;6.40;95381.00;;;;5027646;28;20240;-86
2022/09/28 06:46:52;;;;;;;1.93;1.70;;;5.50;99.90;6.90;95379.00;;;;5025885;28;20216;-86
2022/09/28 06:49:42;;;;;;;3.30;2.10;;;5.60;99.90;6.40;95369.00;;;;5026034;28;20683;-87
2022/09/28 06:52:30;;;;;;;2.37;1.80;;;5.70;99.90;6.60;95372.00;;;;5013882;28;20608;-85
2022/09/28 06:55:19;;;;;;;2.23;2.03;;;5.70;99.90;7.00;95384.00;;;;5013514;28;20190;-87
2022/09/28 06:58:11;;;;;;;3.83;2.70;;;6.10;99.90;7.50;95378.00;;;;5025206;28;20256;-86
2022/09/28 07:01:00;;;;;;;2.87;2.63;;;6.00;99.90;7.50;95370.00;;;;5021389;28;20190;-86
2022/09/28 07:03:49;;;;;;;4.43;3.33;;;6.20;99.90;7.60;95382.00;;;;5022797;28;20646;-86
2022/09/28 07:06:47;;;;;;;2.83;2.60;;;6.30;99.90;8.30;95359.00;;;;5021537;28;20212;-87
2022/09/28 07:09:36;;;;;;;6.23;3.47;;;6.60;99.90;8.30;95364.00;;;;5026806;28;20216;-86
2022/09/28 07:12:27;;;;;;;11.20;3.53;;;6.80;99.90;8.40;95353.00;;;;5022503;28;20222;-87
2022/09/28 07:15:16;;;;;;;6.03;4.20;;;7.00;99.90;8.70;95348.00;;;;5023072;28;20213;-85
2022/09/28 07:18:07;;;;;;;4.83;3.83;;;7.10;99.90;8.90;95338.00;;;;5030433;28;20217;-86
2022/09/28 07:20:57;;;;;;;5.10;3.70;;;7.30;99.90;9.20;95341.00;;;;5021922;28;20217;-86
2022/09/28 07:23:47;;;;;;;8.00;4.85;;;7.50;99.90;9.40;95334.00;;;;5020420;28;20719;-86
2022/09/28 07:26:40;;;;;;;10.40;4.80;;;7.70;99.90;9.80;95323.00;;;;5020084;28;20195;-86
2022/09/28 07:29:29;;;;;;;4.63;4.17;;;7.90;99.90;10.00;95321.00;;;;5028230;28;20201;-86
2022/09/28 07:32:17;;;;;;;4.70;4.03;;;8.20;99.90;10.40;95318.00;;;;5026540;28;20210;-86
2022/09/28 07:35:08;;;;;;;4.53;3.53;;;8.50;99.90;10.60;95307.00;;;;5017096;28;20212;-87
2022/09/28 07:38:01;;;;;;;5.07;3.83;;;8.70;99.90;10.70;95335.00;;;;5022937;28;20271;-86
2022/09/28 07:43:57;;;;;;;4.83;3.47;;;9.20;99.90;11.20;95322.00;;;;5016579;28;20225;-86
2022/09/28 07:46:46;;;;;;;4.20;3.90;;;9.40;99.90;11.40;95320.00;;;;5023901;28;20222;-86
2022/09/28 07:49:35;;;;;;;4.27;3.50;;;9.60;99.90;11.60;95311.00;;;;5028872;28;20636;-86
2022/09/28 07:52:25;;;;;;;6.43;4.20;;;9.80;99.90;11.80;95303.00;;;;5023096;28;20217;-86
2022/09/28 07:55:14;;;;;;;4.07;3.37;;;10.00;99.90;12.20;95312.00;;;;5026177;28;20318;-86
2022/09/28 07:58:04;;;;;;;6.07;3.70;;;10.20;99.90;12.30;95320.00;;;;5024704;28;20605;-86
2022/09/28 08:00:52;;;;;;;7.03;3.17;;;10.40;99.90;12.60;95314.00;;;;5023314;28;20197;-86
2022/09/28 08:03:44;;;;;;;6.50;3.67;;;10.70;99.90;12.80;95318.00;;;;5026219;28;21088;-86
2022/09/28 08:06:32;;;;;;;4.57;2.77;;;10.90;99.90;13.10;95316.00;;;;5022760;28;20252;-86
2022/09/28 08:09:21;;;;;;;5.30;3.33;;;11.10;99.90;13.20;95310.00;;;;5023619;28;20190;-87
2022/09/28 08:12:11;;;;;;;4.00;2.60;;;11.30;99.90;13.40;95324.00;;;;5022737;28;20271;-86
2022/09/28 08:15:01;;;;;;;4.03;2.47;;;11.50;99.90;13.70;95330.00;;;;5023749;28;20201;-86
2022/09/28 08:17:50;;;;;;;3.17;2.00;;;11.70;99.90;13.90;95320.00;;;;5017724;28;20255;-86
2022/09/28 08:23:44;;;;;;;5.13;2.10;;;12.00;99.90;13.80;95312.00;;;;5016851;28;20697;-86
2022/09/28 08:26:33;;;;;;;4.57;2.17;;;12.40;99.90;13.80;95318.00;;;;5019233;28;20205;-86
2022/09/28 08:29:22;;;;;;;8.37;2.10;;;12.20;99.90;13.80;95322.00;;;;5018131;28;20214;-87
2022/09/28 08:32:12;;;;;;;2.47;2.27;;;12.30;99.90;14.30;95329.00;;;;5016889;28;20599;-86
2022/09/28 08:35:01;;;;;;;3.87;1.77;;;12.40;99.90;14.30;95324.00;;;;5022894;28;20247;-87
2022/09/28 08:37:51;;;;;;;2.60;2.00;;;12.50;99.90;14.30;95317.00;;;;5020752;28;20201;-87
2022/09/28 08:40:53;;;;;;;1.97;1.77;;;12.60;99.90;14.40;95314.00;;;;5017153;28;20233;-86
2022/09/28 08:43:56;;;;;;;4.50;2.00;;;12.70;99.90;14.60;95304.00;;;;5016360;28;20224;-86
2022/09/28 08:46:49;;;;;;;3.10;1.90;;;12.70;99.90;14.60;95297.00;;;;5019478;28;20201;-86
2022/09/28 08:49:44;;;;;;;1.90;1.60;;;12.90;99.90;14.70;95294.00;;;;5022101;28;20205;-85
2022/09/28 08:52:39;;;;;;;2.00;1.70;;;12.90;99.90;14.80;95295.00;;;;5024141;28;20222;-86
2022/09/28 08:55:31;;;;;;;2.00;1.80;;;13.00;99.90;14.90;95291.00;;;;5017727;28;20201;-86
2022/09/28 08:58:27;;;;;;;1.60;1.47;;;13.10;99.90;15.10;95285.00;;;;5018798;28;20201;-86
2022/09/28 09:01:19;;;;;;;1.73;1.50;;;13.20;99.90;15.10;95296.00;;;;5018987;28;20244;-85
2022/09/28 09:04:08;;;;;;;3.47;1.70;;;13.30;99.90;14.80;95296.00;;;;5015901;28;20230;-86
2022/09/28 09:07:28;;;;;;;2.30;2.10;;;13.30;99.90;15.20;95275.00;;;;5020796;28;20206;-85
2022/09/28 09:10:48;;;;;;;1.57;1.30;;;13.40;99.90;15.20;95286.00;;;;5023081;28;20584;-86
2022/09/28 09:14:06;;;;;;;2.00;1.60;;;13.70;99.90;15.40;95285.00;;;;5014900;28;20240;-86
2022/09/28 09:17:10;;;;;;;1.87;1.50;;;13.50;99.90;15.40;95289.00;;;;5025404;28;20292;-86
2022/09/28 09:20:11;;;;;;;1.53;1.37;;;13.60;99.90;15.50;95283.00;;;;5020083;28;20193;-87
2022/09/28 09:23:10;;;;;;;2.63;1.60;;;13.60;99.90;15.50;95287.00;;;;5018858;28;20720;-86
2022/09/28 09:26:06;;;;;;;2.30;1.77;;;13.70;99.90;15.60;95264.00;;;;5017487;28;20569;-86
2022/09/28 09:29:16;;;;;;;4.07;1.73;;;13.80;99.90;16.10;95264.00;;;;5019526;28;20248;-87
2022/09/28 09:32:41;;;;;;;3.93;2.03;;;13.90;99.90;15.50;95262.00;;;;5019391;28;20208;-87
2022/09/28 09:36:10;;;;;;;4.00;1.77;;;14.10;99.90;16.10;95269.00;;;;5017487;28;20198;-86
2022/09/28 09:39:18;;;;;;;3.07;1.83;;;14.20;99.90;16.30;95266.00;;;;5021813;28;20314;-86
2022/09/28 09:42:31;;;;;;;2.50;1.47;;;14.40;99.90;16.10;95279.00;;;;5029628;28;20208;-87
2022/09/28 09:45:37;;;;;;;3.80;1.80;;;14.60;99.90;16.70;95279.00;;;;5021094;28;20222;-87
2022/09/28 09:48:30;;;;;;;2.77;1.87;;;14.60;99.90;16.30;95278.00;;;;5014660;28;20690;-87
2022/09/28 09:51:30;;;;;;;1.83;1.67;;;14.70;99.90;16.20;95271.00;;;;5029394;28;20200;-86
2022/09/28 09:54:27;;;;;;;2.33;1.63;;;14.70;99.90;16.60;95279.00;;;;5023455;28;20323;-87
2022/09/28 09:57:22;;;;;;;3.57;1.63;;;14.70;99.90;16.20;95284.00;;;;5023787;28;20206;-87
2022/09/28 10:00:14;;;;;;;1.60;1.50;;;14.80;99.90;15.90;95267.00;;;;5010114;28;20283;-87
2022/09/28 10:03:03;;;;;;;1.20;1.10;;;14.70;99.90;16.40;95257.00;;;;5023798;28;20244;-86
2022/09/28 10:05:59;;;;;;;1.30;1.17;;;14.70;99.90;15.20;95248.00;;;;5018903;28;20238;-87
2022/09/28 10:08:53;;;;;;;0.80;0.77;;;14.60;99.90;16.00;95255.00;;;;5021690;28;20205;-87
2022/09/28 10:11:49;;;;;;;1.93;1.00;;;14.70;99.90;16.00;95260.00;;;;5009602;28;20201;-88
2022/09/28 10:14:39;;;;;;;1.40;1.00;;;14.70;99.90;16.80;95270.00;;;;5017754;28;20201;-88
2022/09/28 10:17:27;;;;;;;1.60;1.27;;;14.80;99.90;17.30;95257.00;;;;5030628;28;20636;-87
2022/09/28 10:20:17;;;;;;;1.57;1.30;;;15.10;99.90;17.40;95255.00;;;;5033122;28;20213;-87
2022/09/28 10:23:14;;;;;;;1.90;1.37;;;15.30;99.90;17.40;95264.00;;;;5033208;28;20284;-86
2022/09/28 10:26:07;;;;;;;1.63;1.00;;;15.40;99.90;16.90;95262.00;;;;5024656;28;20225;-87
2022/09/28 10:29:02;;;;;;;1.37;1.27;;;15.30;99.90;17.10;95267.00;;;;5012524;28;20202;-87
2022/09/28 10:31:52;;;;;;;4.90;1.57;;;15.30;99.90;17.30;95274.00;;;;5013173;28;20205;-86
2022/09/28 10:34:41;;;;;;;3.33;2.13;;;15.40;99.90;17.20;95276.00;;;;5016427;28;20202;-86
2022/09/28 10:37:30;;;;;;;2.60;2.10;;;15.40;99.90;18.00;95251.00;;;;5018293;28;20220;-87
2022/09/28 10:40:39;;;;;;;3.60;3.10;;;15.60;99.90;18.50;95277.00;;;;5014135;28;20236;-86
2022/09/28 10:43:32;;;;;;;6.80;3.87;;;16.00;99.90;17.90;95265.00;;;;5018366;28;20244;-87
2022/09/28 10:46:23;;;;;;;5.37;3.60;;;16.10;99.90;17.80;95264.00;;;;5032054;28;20667;-87
2022/09/28 10:49:17;;;;;;;3.57;2.60;;;16.10;99.90;18.10;95282.00;;;;5027154;28;20213;-86
2022/09/28 10:52:35;;;;;;;7.03;3.30;;;16.20;99.90;18.40;95250.00;;;;5016419;28;20281;-87
2022/09/28 10:55:31;;;;;;;7.43;3.20;;;16.30;99.90;19.00;95249.00;;;;5017938;28;20224;-87
2022/09/28 10:58:28;;;;;;;3.77;3.37;;;16.60;99.90;18.60;95259.00;;;;5017222;28;20206;-88
2022/09/28 11:01:22;;;;;;;7.83;3.97;;;16.70;99.90;19.20;95263.00;;;;5015684;28;20202;-88
2022/09/28 11:04:21;;;;;;;4.57;2.90;;;17.00;99.90;18.90;95221.00;;;;5030862;28;20228;-88
2022/09/28 11:07:18;;;;;;;3.67;2.83;;;17.10;99.90;19.30;95262.00;;;;5031571;28;20224;-88
2022/09/28 11:10:20;;;;;;;2.83;2.60;;;17.30;99.90;19.40;95236.00;;;;5023161;28;20771;-87
2022/09/28 11:13:09;;;;;;;6.33;3.10;;;17.40;99.90;19.60;95253.00;;;;5013430;28;20214;-85
2022/09/28 11:15:58;;;;;;;6.37;3.00;;;17.60;99.90;18.20;95221.00;;;;5012924;28;20205;-85
2022/09/28 11:18:49;;;;;;;6.40;3.10;;;17.40;99.90;19.00;95185.00;;;;5019637;28;20209;-85
2022/09/28 11:24:06;;;;;;;4.20;3.30;;;17.30;99.90;17.50;95218.00;;;;5026376;23;20252;-77
2022/09/28 11:26:58;;;;;;;4.77;3.03;;;17.00;99.90;18.90;95192.00;;;;5017540;28;20229;-76
2022/09/28 11:29:55;;;;;;;3.00;2.70;;;16.90;99.90;18.90;95208.00;;;;5009983;28;20198;-77
2022/09/28 11:32:45;;;;;;;5.63;2.67;;;17.10;99.90;18.80;95226.00;;;;5018676;28;20248;-76
2022/09/28 11:35:52;;;;;;;5.47;2.93;;;17.30;99.90;17.20;95219.00;;;;5020328;28;20197;-76
2022/09/28 11:38:47;;;;;;;3.37;3.07;;;16.80;99.90;18.70;95201.00;;;;5027820;28;20213;-77
2022/09/28 11:41:56;;;;;;;4.13;2.93;;;16.80;99.90;20.00;95221.00;;;;5030973;28;20221;-77
2022/09/28 11:44:46;;;;;;;6.03;2.63;;;17.20;99.90;21.10;95167.00;;;;5028479;28;20228;-76
2022/09/28 11:47:53;;;;;;;2.57;2.37;;;17.70;99.90;21.20;95220.00;;;;5025894;28;20630;-76
2022/09/28 11:50:48;;;;;;;2.50;2.17;;;18.30;99.90;20.60;95224.00;;;;5030374;28;20453;-77
2022/09/28 11:53:42;;;;;;;5.30;2.47;;;18.50;99.90;20.30;95218.00;;;;5030137;28;20205;-77
2022/09/28 11:56:37;;;;;;;4.00;2.20;;;18.60;99.90;19.90;95217.00;;;;5032420;28;20255;-77
2022/09/28 11:59:30;;;;;;;6.00;1.97;;;18.50;99.90;20.00;95190.00;;;;5030434;28;20272;-77
2022/09/28 12:02:23;;;;;;;2.67;2.47;;;18.40;99.90;19.90;95231.00;;;;5029321;28;20217;-75
2022/09/28 12:05:22;;;;;;;2.50;2.30;;;18.30;99.90;19.30;95201.00;;;;5028701;28;20576;-76
2022/09/28 12:08:20;;;;;;;3.17;2.43;;;18.10;99.90;21.00;95162.00;;;;5027162;28;20271;-75
2022/09/28 12:11:15;;;;;;;1.93;1.83;;;18.40;99.90;20.80;95217.00;;;;5027471;28;20698;-75
2022/09/28 12:14:11;;;;;;;2.77;1.87;;;18.70;99.90;20.50;95213.00;;;;5023845;28;20267;-76
2022/09/28 12:17:10;;;;;;;3.80;2.10;;;18.70;99.90;19.90;95214.00;;;;5023945;28;20675;-76
2022/09/28 12:20:10;;;;;;;2.10;1.53;;;18.60;99.90;20.30;95176.00;;;;5025011;28;20825;-76
2022/09/28 12:23:07;;;;;;;4.87;2.30;;;18.50;99.90;22.10;95173.00;;;;5024937;28;20233;-76
2022/09/28 12:26:00;;;;;;;2.83;2.07;;;18.90;99.90;21.20;95203.00;;;;5025014;28;20618;-76
2022/09/28 12:28:55;;;;;;;1.63;1.53;;;19.10;99.90;21.40;95169.00;;;;5028857;28;20620;-76
2022/09/28 12:31:58;;;;;;;1.77;1.67;;;19.30;99.90;22.30;95164.00;;;;5022642;28;20267;-76
2022/09/28 12:34:47;;;;;;;2.17;1.97;;;19.70;99.90;22.40;95145.00;;;;5025601;28;20247;-77
2022/09/28 12:37:53;;;;;;;2.00;1.90;;;19.90;99.90;21.70;95148.00;;;;5027119;28;20219;-76
2022/09/28 12:40:53;;;;;;;2.03;1.80;;;20.10;99.90;23.50;95112.00;;;;5022612;28;20271;-77
2022/09/28 12:44:13;;;;;;;6.90;2.00;;;20.50;99.90;24.50;95172.00;;;;5026795;28;20197;-76
2022/09/28 12:47:40;;;;;;;3.90;1.70;;;21.30;99.90;24.00;95139.00;;;;5020318;28;20254;-76
2022/09/28 12:50:36;;;;;;;1.93;1.60;;;21.60;99.90;22.90;95191.00;;;;4995665;28;20245;-76
2022/09/28 12:53:56;;;;;;;3.60;1.63;;;21.70;99.10;23.20;95148.00;;;;5025318;28;20220;-76
2022/09/28 12:57:00;;;;;;;1.60;1.50;;;21.50;98.80;22.50;95182.00;;;;5023399;28;20213;-76
2022/09/28 13:00:03;;;;;;;3.87;1.57;;;21.20;98.10;21.60;95172.00;;;;5026910;28;20202;-77
2022/09/28 13:03:30;;;;;;;7.73;3.00;;;20.70;98.60;21.90;95166.00;;;;5026632;28;20243;-78
2022/09/28 13:06:48;;;;;;;4.80;1.57;;;20.30;99.90;21.30;95178.00;;;;5027043;28;20213;-78
2022/09/28 13:09:52;;;;;;;3.40;1.77;;;19.90;99.90;20.60;95186.00;;;;5029712;28;20201;-77
2022/09/28 13:13:00;;;;;;;1.83;1.67;;;19.50;99.90;20.20;95186.00;;;;5028281;28;20225;-79
2022/09/28 13:15:59;;;;;;;8.47;1.40;;;19.00;99.90;19.60;95188.00;;;;5034921;28;20262;-80